sensor_id;sensor_type;location;lat;lon;timestamp;P1;durP1;ratioP1;P2;durP2;ratioP2
22186;SDS011;11259;52.146;12.844;2024-02-14T00:00:12;4.43;;;2.80;;
22186;SDS011;11259;52.146;12.844;2024-02-14T00:02:38;1.92;;;1.83;;
22186;SDS011;11259;52.146;12.844;2024-02-14T00:05:03;0.95;;;0.93;;
22186;SDS011;11259;52.146;12.844;2024-02-14T00:07:29;3.08;;;1.17;;
22186;SDS011;11259;52.146;12.844;2024-02-14T00:09:54;1.73;;;1.23;;
22186;SDS011;11259;52.146;12.844;2024-02-14T00:12:20;4.45;;;2.08;;
22186;SDS011;11259;52.146;12.844;2024-02-14T00:14:47;1.58;;;1.48;;
22186;SDS011;11259;52.146;12.844;2024-02-14T00:17:12;1.17;;;1.15;;
22186;SDS011;11259;52.146;12.844;2024-02-14T00:19:37;1.10;;;1.10;;
22186;SDS011;11259;52.146;12.844;2024-02-14T00:22:03;1.40;;;1.30;;
22186;SDS011;11259;52.146;12.844;2024-02-14T00:24:28;1.60;;;1.50;;
22186;SDS011;11259;52.146;12.844;2024-02-14T00:26:53;1.75;;;1.63;;
22186;SDS011;11259;52.146;12.844;2024-02-14T00:29:19;3.40;;;1.77;;
22186;SDS011;11259;52.146;12.844;2024-02-14T00:31:45;2.65;;;1.75;;
22186;SDS011;11259;52.146;12.844;2024-02-14T00:34:11;1.05;;;1.05;;
22186;SDS011;11259;52.146;12.844;2024-02-14T00:36:36;2.20;;;1.63;;
22186;SDS011;11259;52.146;12.844;2024-02-14T00:39:01;1.85;;;1.55;;
22186;SDS011;11259;52.146;12.844;2024-02-14T00:41:27;2.45;;;1.90;;
22186;SDS011;11259;52.146;12.844;2024-02-14T00:43:52;1.40;;;1.30;;
22186;SDS011;11259;52.146;12.844;2024-02-14T00:46:18;1.50;;;1.27;;
22186;SDS011;11259;52.146;12.844;2024-02-14T00:48:44;1.75;;;1.65;;
22186;SDS011;11259;52.146;12.844;2024-02-14T00:51:10;1.73;;;1.60;;
22186;SDS011;11259;52.146;12.844;2024-02-14T00:53:35;1.45;;;1.05;;
22186;SDS011;11259;52.146;12.844;2024-02-14T00:56:01;2.67;;;2.50;;
22186;SDS011;11259;52.146;12.844;2024-02-14T00:58:26;1.05;;;0.93;;
22186;SDS011;11259;52.146;12.844;2024-02-14T01:00:51;1.42;;;1.27;;
22186;SDS011;11259;52.146;12.844;2024-02-14T01:03:16;2.67;;;1.60;;
22186;SDS011;11259;52.146;12.844;2024-02-14T01:05:43;1.45;;;1.35;;
22186;SDS011;11259;52.146;12.844;2024-02-14T01:08:08;2.15;;;1.58;;
22186;SDS011;11259;52.146;12.844;2024-02-14T01:10:34;7.65;;;1.85;;
22186;SDS011;11259;52.146;12.844;2024-02-14T01:12:59;1.65;;;1.40;;
22186;SDS011;11259;52.146;12.844;2024-02-14T01:15:24;2.13;;;1.45;;
22186;SDS011;11259;52.146;12.844;2024-02-14T01:17:50;1.48;;;1.15;;
22186;SDS011;11259;52.146;12.844;2024-02-14T01:20:15;2.35;;;2.15;;
22186;SDS011;11259;52.146;12.844;2024-02-14T01:22:42;1.38;;;1.35;;
22186;SDS011;11259;52.146;12.844;2024-02-14T01:25:08;2.90;;;2.45;;
22186;SDS011;11259;52.146;12.844;2024-02-14T01:27:33;1.15;;;1.05;;
22186;SDS011;11259;52.146;12.844;2024-02-14T01:29:58;1.13;;;1.05;;
22186;SDS011;11259;52.146;12.844;2024-02-14T01:32:24;1.65;;;1.55;;
22186;SDS011;11259;52.146;12.844;2024-02-14T01:34:49;3.45;;;1.85;;
22186;SDS011;11259;52.146;12.844;2024-02-14T01:37:14;1.83;;;1.73;;
22186;SDS011;11259;52.146;12.844;2024-02-14T01:39:41;1.52;;;1.13;;
22186;SDS011;11259;52.146;12.844;2024-02-14T01:42:06;1.63;;;1.52;;
22186;SDS011;11259;52.146;12.844;2024-02-14T01:44:32;1.52;;;1.42;;
22186;SDS011;11259;52.146;12.844;2024-02-14T01:46:57;2.42;;;1.90;;
22186;SDS011;11259;52.146;12.844;2024-02-14T01:49:22;4.60;;;2.28;;
22186;SDS011;11259;52.146;12.844;2024-02-14T01:51:48;3.22;;;1.95;;
22186;SDS011;11259;52.146;12.844;2024-02-14T01:54:13;1.45;;;1.38;;
22186;SDS011;11259;52.146;12.844;2024-02-14T01:56:41;1.40;;;1.30;;
22186;SDS011;11259;52.146;12.844;2024-02-14T01:59:06;2.92;;;1.50;;
22186;SDS011;11259;52.146;12.844;2024-02-14T02:01:33;1.63;;;1.52;;
22186;SDS011;11259;52.146;12.844;2024-02-14T02:03:58;1.17;;;1.08;;
22186;SDS011;11259;52.146;12.844;2024-02-14T02:06:23;1.83;;;1.55;;
22186;SDS011;11259;52.146;12.844;2024-02-14T02:08:49;2.58;;;1.90;;
22186;SDS011;11259;52.146;12.844;2024-02-14T02:11:14;3.33;;;2.45;;
22186;SDS011;11259;52.146;12.844;2024-02-14T02:13:41;0.60;;;0.60;;
22186;SDS011;11259;52.146;12.844;2024-02-14T02:16:06;1.83;;;1.73;;
22186;SDS011;11259;52.146;12.844;2024-02-14T02:18:32;1.58;;;1.48;;
22186;SDS011;11259;52.146;12.844;2024-02-14T02:20:57;1.20;;;1.08;;
22186;SDS011;11259;52.146;12.844;2024-02-14T02:23:24;1.52;;;1.23;;
22186;SDS011;11259;52.146;12.844;2024-02-14T02:25:49;0.95;;;0.95;;
22186;SDS011;11259;52.146;12.844;2024-02-14T02:28:14;3.78;;;2.03;;
22186;SDS011;11259;52.146;12.844;2024-02-14T02:30:40;1.13;;;1.05;;
22186;SDS011;11259;52.146;12.844;2024-02-14T02:33:05;2.30;;;1.58;;
22186;SDS011;11259;52.146;12.844;2024-02-14T02:35:31;1.38;;;1.27;;
22186;SDS011;11259;52.146;12.844;2024-02-14T02:37:56;2.35;;;1.70;;
22186;SDS011;11259;52.146;12.844;2024-02-14T02:40:23;0.98;;;0.90;;
22186;SDS011;11259;52.146;12.844;2024-02-14T02:42:48;2.08;;;1.00;;
22186;SDS011;11259;52.146;12.844;2024-02-14T02:45:14;1.08;;;0.90;;
22186;SDS011;11259;52.146;12.844;2024-02-14T02:47:39;1.50;;;1.40;;
22186;SDS011;11259;52.146;12.844;2024-02-14T02:50:05;0.82;;;0.60;;
22186;SDS011;11259;52.146;12.844;2024-02-14T02:52:30;0.95;;;0.95;;
22186;SDS011;11259;52.146;12.844;2024-02-14T02:54:56;1.48;;;1.38;;
22186;SDS011;11259;52.146;12.844;2024-02-14T02:57:22;1.38;;;1.27;;
22186;SDS011;11259;52.146;12.844;2024-02-14T02:59:48;1.60;;;1.25;;
22186;SDS011;11259;52.146;12.844;2024-02-14T03:02:13;1.48;;;1.23;;
22186;SDS011;11259;52.146;12.844;2024-02-14T03:04:39;2.60;;;1.35;;
22186;SDS011;11259;52.146;12.844;2024-02-14T03:07:04;2.63;;;1.67;;
22186;SDS011;11259;52.146;12.844;2024-02-14T03:09:30;0.75;;;0.75;;
22186;SDS011;11259;52.146;12.844;2024-02-14T03:11:55;1.20;;;1.17;;
22186;SDS011;11259;52.146;12.844;2024-02-14T03:14:22;2.42;;;1.42;;
22186;SDS011;11259;52.146;12.844;2024-02-14T03:16:47;1.73;;;1.63;;
22186;SDS011;11259;52.146;12.844;2024-02-14T03:19:12;0.95;;;0.95;;
22186;SDS011;11259;52.146;12.844;2024-02-14T03:21:38;1.30;;;1.20;;
22186;SDS011;11259;52.146;12.844;2024-02-14T03:24:03;0.93;;;0.93;;
22186;SDS011;11259;52.146;12.844;2024-02-14T03:26:29;1.60;;;1.50;;
22186;SDS011;11259;52.146;12.844;2024-02-14T03:28:55;1.17;;;1.15;;
22186;SDS011;11259;52.146;12.844;2024-02-14T03:31:21;1.63;;;1.52;;
22186;SDS011;11259;52.146;12.844;2024-02-14T03:33:47;1.30;;;1.20;;
22186;SDS011;11259;52.146;12.844;2024-02-14T03:36:12;0.98;;;0.98;;
22186;SDS011;11259;52.146;12.844;2024-02-14T03:38:37;1.25;;;1.10;;
22186;SDS011;11259;52.146;12.844;2024-02-14T03:41:03;0.75;;;0.75;;
22186;SDS011;11259;52.146;12.844;2024-02-14T03:43:28;1.40;;;1.23;;
22186;SDS011;11259;52.146;12.844;2024-02-14T03:45:54;1.52;;;1.23;;
22186;SDS011;11259;52.146;12.844;2024-02-14T03:48:20;0.80;;;0.80;;
22186;SDS011;11259;52.146;12.844;2024-02-14T03:50:46;1.55;;;1.45;;
22186;SDS011;11259;52.146;12.844;2024-02-14T03:53:11;1.58;;;1.20;;
22186;SDS011;11259;52.146;12.844;2024-02-14T03:55:36;1.70;;;1.60;;
22186;SDS011;11259;52.146;12.844;2024-02-14T03:58:02;1.67;;;1.58;;
22186;SDS011;11259;52.146;12.844;2024-02-14T04:00:27;2.08;;;1.17;;
22186;SDS011;11259;52.146;12.844;2024-02-14T04:02:53;0.85;;;0.85;;
22186;SDS011;11259;52.146;12.844;2024-02-14T04:05:19;0.95;;;0.90;;
22186;SDS011;11259;52.146;12.844;2024-02-14T04:07:45;1.40;;;1.30;;
22186;SDS011;11259;52.146;12.844;2024-02-14T04:10:10;2.20;;;1.73;;
22186;SDS011;11259;52.146;12.844;2024-02-14T04:12:35;1.85;;;1.27;;
22186;SDS011;11259;52.146;12.844;2024-02-14T04:15:01;5.95;;;1.95;;
22186;SDS011;11259;52.146;12.844;2024-02-14T04:17:26;2.10;;;1.38;;
22186;SDS011;11259;52.146;12.844;2024-02-14T04:19:51;1.80;;;1.05;;
22186;SDS011;11259;52.146;12.844;2024-02-14T04:22:18;1.73;;;1.33;;
22186;SDS011;11259;52.146;12.844;2024-02-14T04:24:43;0.95;;;0.95;;
22186;SDS011;11259;52.146;12.844;2024-02-14T04:27:09;1.15;;;1.05;;
22186;SDS011;11259;52.146;12.844;2024-02-14T04:29:34;1.23;;;1.13;;
22186;SDS011;11259;52.146;12.844;2024-02-14T04:31:59;2.20;;;1.48;;
22186;SDS011;11259;52.146;12.844;2024-02-14T04:34:25;2.58;;;1.75;;
22186;SDS011;11259;52.146;12.844;2024-02-14T04:36:50;1.33;;;1.23;;
22186;SDS011;11259;52.146;12.844;2024-02-14T04:39:17;4.18;;;1.50;;
22186;SDS011;11259;52.146;12.844;2024-02-14T04:41:42;1.73;;;1.63;;
22186;SDS011;11259;52.146;12.844;2024-02-14T04:44:08;1.52;;;1.15;;
22186;SDS011;11259;52.146;12.844;2024-02-14T04:46:33;1.52;;;1.30;;
22186;SDS011;11259;52.146;12.844;2024-02-14T04:48:59;1.20;;;1.17;;
22186;SDS011;11259;52.146;12.844;2024-02-14T04:51:24;1.13;;;1.13;;
22186;SDS011;11259;52.146;12.844;2024-02-14T04:53:49;1.10;;;1.00;;
22186;SDS011;11259;52.146;12.844;2024-02-14T04:56:16;0.95;;;0.93;;
22186;SDS011;11259;52.146;12.844;2024-02-14T04:58:41;1.20;;;1.20;;
22186;SDS011;11259;52.146;12.844;2024-02-14T05:01:07;0.98;;;0.98;;
22186;SDS011;11259;52.146;12.844;2024-02-14T05:03:32;0.90;;;0.90;;
22186;SDS011;11259;52.146;12.844;2024-02-14T05:05:57;1.35;;;1.25;;
22186;SDS011;11259;52.146;12.844;2024-02-14T05:08:23;1.33;;;1.23;;
22186;SDS011;11259;52.146;12.844;2024-02-14T05:10:48;1.40;;;1.33;;
22186;SDS011;11259;52.146;12.844;2024-02-14T05:13:15;1.38;;;1.27;;
22186;SDS011;11259;52.146;12.844;2024-02-14T05:15:40;1.77;;;1.67;;
22186;SDS011;11259;52.146;12.844;2024-02-14T05:18:06;0.90;;;0.90;;
22186;SDS011;11259;52.146;12.844;2024-02-14T05:20:31;2.85;;;1.38;;
22186;SDS011;11259;52.146;12.844;2024-02-14T05:22:56;1.60;;;1.50;;
22186;SDS011;11259;52.146;12.844;2024-02-14T05:25:22;2.17;;;1.70;;
22186;SDS011;11259;52.146;12.844;2024-02-14T05:27:47;1.25;;;1.25;;
22186;SDS011;11259;52.146;12.844;2024-02-14T05:30:14;1.17;;;1.13;;
22186;SDS011;11259;52.146;12.844;2024-02-14T05:32:39;1.00;;;1.00;;
22186;SDS011;11259;52.146;12.844;2024-02-14T05:35:05;1.13;;;1.10;;
22186;SDS011;11259;52.146;12.844;2024-02-14T05:37:31;1.10;;;1.08;;
22186;SDS011;11259;52.146;12.844;2024-02-14T05:39:56;1.25;;;1.17;;
22186;SDS011;11259;52.146;12.844;2024-02-14T05:42:22;0.77;;;0.77;;
22186;SDS011;11259;52.146;12.844;2024-02-14T05:44:47;1.65;;;1.30;;
22186;SDS011;11259;52.146;12.844;2024-02-14T05:47:14;1.83;;;1.73;;
22186;SDS011;11259;52.146;12.844;2024-02-14T05:49:39;0.80;;;0.80;;
22186;SDS011;11259;52.146;12.844;2024-02-14T05:52:05;1.48;;;1.13;;
22186;SDS011;11259;52.146;12.844;2024-02-14T05:54:31;1.90;;;1.80;;
22186;SDS011;11259;52.146;12.844;2024-02-14T05:56:56;1.25;;;1.15;;
22186;SDS011;11259;52.146;12.844;2024-02-14T05:59:21;0.90;;;0.90;;
22186;SDS011;11259;52.146;12.844;2024-02-14T06:01:47;1.83;;;1.73;;
22186;SDS011;11259;52.146;12.844;2024-02-14T06:04:13;1.58;;;1.48;;
22186;SDS011;11259;52.146;12.844;2024-02-14T06:06:39;4.55;;;1.27;;
22186;SDS011;11259;52.146;12.844;2024-02-14T06:09:04;2.08;;;1.52;;
22186;SDS011;11259;52.146;12.844;2024-02-14T06:11:29;1.88;;;1.70;;
22186;SDS011;11259;52.146;12.844;2024-02-14T06:13:55;0.98;;;0.98;;
22186;SDS011;11259;52.146;12.844;2024-02-14T06:16:20;1.45;;;1.40;;
22186;SDS011;11259;52.146;12.844;2024-02-14T06:18:45;1.00;;;1.00;;
22186;SDS011;11259;52.146;12.844;2024-02-14T06:21:12;3.63;;;1.85;;
22186;SDS011;11259;52.146;12.844;2024-02-14T06:23:37;1.17;;;1.17;;
22186;SDS011;11259;52.146;12.844;2024-02-14T06:26:03;0.85;;;0.85;;
22186;SDS011;11259;52.146;12.844;2024-02-14T06:28:28;1.15;;;1.15;;
22186;SDS011;11259;52.146;12.844;2024-02-14T06:30:53;1.00;;;1.00;;
22186;SDS011;11259;52.146;12.844;2024-02-14T06:33:19;1.17;;;1.08;;
22186;SDS011;11259;52.146;12.844;2024-02-14T06:35:44;3.80;;;1.52;;
22186;SDS011;11259;52.146;12.844;2024-02-14T06:38:11;3.25;;;2.25;;
22186;SDS011;11259;52.146;12.844;2024-02-14T06:40:36;1.48;;;1.38;;
22186;SDS011;11259;52.146;12.844;2024-02-14T06:43:01;1.55;;;1.25;;
22186;SDS011;11259;52.146;12.844;2024-02-14T06:45:27;1.33;;;1.23;;
22186;SDS011;11259;52.146;12.844;2024-02-14T06:47:52;1.15;;;1.15;;
22186;SDS011;11259;52.146;12.844;2024-02-14T06:50:17;1.30;;;1.30;;
22186;SDS011;11259;52.146;12.844;2024-02-14T06:52:43;1.10;;;1.10;;
22186;SDS011;11259;52.146;12.844;2024-02-14T06:55:09;3.85;;;3.30;;
22186;SDS011;11259;52.146;12.844;2024-02-14T06:57:35;5.30;;;3.92;;
22186;SDS011;11259;52.146;12.844;2024-02-14T07:00:00;60.50;;;22.52;;
22186;SDS011;11259;52.146;12.844;2024-02-14T07:02:25;32.15;;;17.23;;
22186;SDS011;11259;52.146;12.844;2024-02-14T07:04:51;47.65;;;23.45;;
22186;SDS011;11259;52.146;12.844;2024-02-14T07:07:16;43.72;;;21.63;;
22186;SDS011;11259;52.146;12.844;2024-02-14T07:09:41;41.72;;;20.85;;
22186;SDS011;11259;52.146;12.844;2024-02-14T07:12:08;48.08;;;28.75;;
22186;SDS011;11259;52.146;12.844;2024-02-14T07:14:33;49.85;;;23.90;;
22186;SDS011;11259;52.146;12.844;2024-02-14T07:16:59;35.75;;;17.10;;
22186;SDS011;11259;52.146;12.844;2024-02-14T07:19:24;31.33;;;16.15;;
22186;SDS011;11259;52.146;12.844;2024-02-14T07:21:49;31.17;;;15.38;;
22186;SDS011;11259;52.146;12.844;2024-02-14T07:24:15;37.58;;;16.90;;
22186;SDS011;11259;52.146;12.844;2024-02-14T07:26:40;21.55;;;13.50;;
22186;SDS011;11259;52.146;12.844;2024-02-14T07:29:07;24.65;;;12.00;;
22186;SDS011;11259;52.146;12.844;2024-02-14T07:31:32;18.15;;;12.27;;
22186;SDS011;11259;52.146;12.844;2024-02-14T07:33:58;18.73;;;11.48;;
22186;SDS011;11259;52.146;12.844;2024-02-14T07:36:23;14.30;;;9.65;;
22186;SDS011;11259;52.146;12.844;2024-02-14T07:38:48;13.55;;;7.97;;
22186;SDS011;11259;52.146;12.844;2024-02-14T07:41:14;5.82;;;3.55;;
22186;SDS011;11259;52.146;12.844;2024-02-14T07:43:39;6.95;;;4.35;;
22186;SDS011;11259;52.146;12.844;2024-02-14T07:46:06;2.97;;;2.78;;
22186;SDS011;11259;52.146;12.844;2024-02-14T07:48:31;2.17;;;1.95;;
22186;SDS011;11259;52.146;12.844;2024-02-14T07:50:56;2.40;;;1.88;;
22186;SDS011;11259;52.146;12.844;2024-02-14T07:53:22;1.85;;;1.20;;
22186;SDS011;11259;52.146;12.844;2024-02-14T07:55:47;6.22;;;1.08;;
22186;SDS011;11259;52.146;12.844;2024-02-14T07:58:13;1.00;;;1.00;;
22186;SDS011;11259;52.146;12.844;2024-02-14T08:00:38;1.23;;;1.15;;
22186;SDS011;11259;52.146;12.844;2024-02-14T08:03:05;1.95;;;1.70;;
22186;SDS011;11259;52.146;12.844;2024-02-14T08:05:30;1.83;;;1.65;;
22186;SDS011;11259;52.146;12.844;2024-02-14T08:07:55;1.42;;;1.33;;
22186;SDS011;11259;52.146;12.844;2024-02-14T08:10:21;1.08;;;1.08;;
22186;SDS011;11259;52.146;12.844;2024-02-14T08:12:46;1.63;;;1.10;;
22186;SDS011;11259;52.146;12.844;2024-02-14T08:15:11;2.00;;;1.55;;
22186;SDS011;11259;52.146;12.844;2024-02-14T08:17:37;0.80;;;0.80;;
22186;SDS011;11259;52.146;12.844;2024-02-14T08:20:04;1.05;;;0.95;;
22186;SDS011;11259;52.146;12.844;2024-02-14T08:22:30;0.90;;;0.75;;
22186;SDS011;11259;52.146;12.844;2024-02-14T08:24:56;0.98;;;0.98;;
22186;SDS011;11259;52.146;12.844;2024-02-14T08:27:21;0.90;;;0.90;;
22186;SDS011;11259;52.146;12.844;2024-02-14T08:29:47;0.90;;;0.90;;
22186;SDS011;11259;52.146;12.844;2024-02-14T08:32:12;0.85;;;0.85;;
22186;SDS011;11259;52.146;12.844;2024-02-14T08:34:37;0.80;;;0.80;;
22186;SDS011;11259;52.146;12.844;2024-02-14T08:37:04;0.90;;;0.90;;
22186;SDS011;11259;52.146;12.844;2024-02-14T08:39:29;2.45;;;1.27;;
22186;SDS011;11259;52.146;12.844;2024-02-14T08:41:55;0.73;;;0.73;;
22186;SDS011;11259;52.146;12.844;2024-02-14T08:44:21;0.95;;;0.90;;
22186;SDS011;11259;52.146;12.844;2024-02-14T08:46:46;0.85;;;0.82;;
22186;SDS011;11259;52.146;12.844;2024-02-14T08:49:11;1.05;;;0.98;;
22186;SDS011;11259;52.146;12.844;2024-02-14T08:51:37;0.98;;;0.88;;
22186;SDS011;11259;52.146;12.844;2024-02-14T08:54:04;1.10;;;1.02;;
22186;SDS011;11259;52.146;12.844;2024-02-14T08:56:29;1.45;;;1.35;;
22186;SDS011;11259;52.146;12.844;2024-02-14T08:58:54;1.00;;;1.00;;
22186;SDS011;11259;52.146;12.844;2024-02-14T09:01:20;0.70;;;0.70;;
22186;SDS011;11259;52.146;12.844;2024-02-14T09:03:45;0.60;;;0.60;;
22186;SDS011;11259;52.146;12.844;2024-02-14T09:06:10;0.90;;;0.90;;
22186;SDS011;11259;52.146;12.844;2024-02-14T09:08:36;1.35;;;1.25;;
22186;SDS011;11259;52.146;12.844;2024-02-14T09:11:02;1.75;;;1.05;;
22186;SDS011;11259;52.146;12.844;2024-02-14T09:13:28;1.52;;;1.42;;
22186;SDS011;11259;52.146;12.844;2024-02-14T09:15:53;0.85;;;0.85;;
22186;SDS011;11259;52.146;12.844;2024-02-14T09:18:19;2.15;;;1.85;;
22186;SDS011;11259;52.146;12.844;2024-02-14T09:20:44;1.70;;;1.23;;
22186;SDS011;11259;52.146;12.844;2024-02-14T09:23:09;0.82;;;0.82;;
22186;SDS011;11259;52.146;12.844;2024-02-14T09:25:35;1.30;;;1.20;;
22186;SDS011;11259;52.146;12.844;2024-02-14T09:28:01;2.13;;;1.73;;
22186;SDS011;11259;52.146;12.844;2024-02-14T09:30:27;4.85;;;1.55;;
22186;SDS011;11259;52.146;12.844;2024-02-14T09:32:52;2.22;;;1.63;;
22186;SDS011;11259;52.146;12.844;2024-02-14T09:35:18;3.55;;;2.45;;
22186;SDS011;11259;52.146;12.844;2024-02-14T09:37:43;3.63;;;2.13;;
22186;SDS011;11259;52.146;12.844;2024-02-14T09:40:09;2.17;;;1.42;;
22186;SDS011;11259;52.146;12.844;2024-02-14T09:42:35;2.15;;;1.98;;
22186;SDS011;11259;52.146;12.844;2024-02-14T09:45:05;1.83;;;1.73;;
22186;SDS011;11259;52.146;12.844;2024-02-14T09:47:31;0.70;;;0.70;;
22186;SDS011;11259;52.146;12.844;2024-02-14T09:49:57;1.25;;;1.25;;
22186;SDS011;11259;52.146;12.844;2024-02-14T09:52:24;1.30;;;1.20;;
22186;SDS011;11259;52.146;12.844;2024-02-14T09:54:49;1.55;;;1.05;;
22186;SDS011;11259;52.146;12.844;2024-02-14T09:57:16;1.35;;;1.23;;
22186;SDS011;11259;52.146;12.844;2024-02-14T09:59:42;5.03;;;2.42;;
22186;SDS011;11259;52.146;12.844;2024-02-14T10:02:10;0.68;;;0.68;;
22186;SDS011;11259;52.146;12.844;2024-02-14T10:04:35;1.08;;;1.05;;
22186;SDS011;11259;52.146;12.844;2024-02-14T10:07:00;1.15;;;1.08;;
22186;SDS011;11259;52.146;12.844;2024-02-14T10:09:26;0.80;;;0.80;;
22186;SDS011;11259;52.146;12.844;2024-02-14T10:11:51;1.20;;;1.17;;
22186;SDS011;11259;52.146;12.844;2024-02-14T10:14:16;1.98;;;1.58;;
22186;SDS011;11259;52.146;12.844;2024-02-14T10:16:42;0.70;;;0.70;;
22186;SDS011;11259;52.146;12.844;2024-02-14T10:19:15;1.10;;;1.10;;
22186;SDS011;11259;52.146;12.844;2024-02-14T10:21:40;0.98;;;0.98;;
22186;SDS011;11259;52.146;12.844;2024-02-14T10:24:06;0.90;;;0.90;;
22186;SDS011;11259;52.146;12.844;2024-02-14T10:26:31;1.17;;;0.93;;
22186;SDS011;11259;52.146;12.844;2024-02-14T10:28:57;0.50;;;0.50;;
22186;SDS011;11259;52.146;12.844;2024-02-14T10:31:23;1.25;;;1.15;;
22186;SDS011;11259;52.146;12.844;2024-02-14T10:33:49;0.95;;;0.95;;
22186;SDS011;11259;52.146;12.844;2024-02-14T10:36:16;1.42;;;1.33;;
22186;SDS011;11259;52.146;12.844;2024-02-14T10:38:42;1.90;;;1.70;;
22186;SDS011;11259;52.146;12.844;2024-02-14T10:41:08;1.40;;;1.10;;
22186;SDS011;11259;52.146;12.844;2024-02-14T10:43:37;0.77;;;0.77;;
22186;SDS011;11259;52.146;12.844;2024-02-14T10:46:07;0.85;;;0.85;;
22186;SDS011;11259;52.146;12.844;2024-02-14T10:48:33;2.00;;;1.63;;
22186;SDS011;11259;52.146;12.844;2024-02-14T10:51:00;1.90;;;1.80;;
22186;SDS011;11259;52.146;12.844;2024-02-14T10:53:29;2.38;;;2.15;;
22186;SDS011;11259;52.146;12.844;2024-02-14T10:55:54;6.70;;;1.48;;
22186;SDS011;11259;52.146;12.844;2024-02-14T10:58:20;1.77;;;1.63;;
22186;SDS011;11259;52.146;12.844;2024-02-14T11:00:49;0.77;;;0.77;;
22186;SDS011;11259;52.146;12.844;2024-02-14T11:03:14;0.77;;;0.77;;
22186;SDS011;11259;52.146;12.844;2024-02-14T11:05:44;1.35;;;1.20;;
22186;SDS011;11259;52.146;12.844;2024-02-14T11:08:10;1.15;;;1.13;;
22186;SDS011;11259;52.146;12.844;2024-02-14T11:10:38;3.58;;;2.78;;
22186;SDS011;11259;52.146;12.844;2024-02-14T11:13:03;5.82;;;2.33;;
22186;SDS011;11259;52.146;12.844;2024-02-14T11:15:29;4.85;;;2.42;;
22186;SDS011;11259;52.146;12.844;2024-02-14T11:18:02;2.13;;;1.25;;
22186;SDS011;11259;52.146;12.844;2024-02-14T11:20:30;0.90;;;0.90;;
22186;SDS011;11259;52.146;12.844;2024-02-14T11:22:57;1.33;;;1.30;;
22186;SDS011;11259;52.146;12.844;2024-02-14T11:25:26;0.82;;;0.82;;
22186;SDS011;11259;52.146;12.844;2024-02-14T11:27:54;1.75;;;1.35;;
22186;SDS011;11259;52.146;12.844;2024-02-14T11:30:26;4.47;;;2.00;;
22186;SDS011;11259;52.146;12.844;2024-02-14T11:32:53;0.70;;;0.70;;
22186;SDS011;11259;52.146;12.844;2024-02-14T11:35:18;1.92;;;1.80;;
22186;SDS011;11259;52.146;12.844;2024-02-14T11:37:44;1.35;;;1.13;;
22186;SDS011;11259;52.146;12.844;2024-02-14T11:40:18;1.58;;;1.48;;
22186;SDS011;11259;52.146;12.844;2024-02-14T11:42:44;0.70;;;0.70;;
22186;SDS011;11259;52.146;12.844;2024-02-14T11:45:11;0.75;;;0.75;;
22186;SDS011;11259;52.146;12.844;2024-02-14T11:47:36;0.80;;;0.80;;
22186;SDS011;11259;52.146;12.844;2024-02-14T11:50:01;0.95;;;0.95;;
22186;SDS011;11259;52.146;12.844;2024-02-14T11:52:27;0.80;;;0.80;;
22186;SDS011;11259;52.146;12.844;2024-02-14T11:54:53;3.70;;;1.90;;
22186;SDS011;11259;52.146;12.844;2024-02-14T11:57:18;0.80;;;0.80;;
22186;SDS011;11259;52.146;12.844;2024-02-14T11:59:44;1.55;;;1.45;;
22186;SDS011;11259;52.146;12.844;2024-02-14T12:02:11;0.70;;;0.70;;
22186;SDS011;11259;52.146;12.844;2024-02-14T12:04:36;1.58;;;1.48;;
22186;SDS011;11259;52.146;12.844;2024-02-14T12:07:01;1.08;;;0.98;;
22186;SDS011;11259;52.146;12.844;2024-02-14T12:09:27;1.00;;;1.00;;
22186;SDS011;11259;52.146;12.844;2024-02-14T12:11:52;0.85;;;0.85;;
22186;SDS011;11259;52.146;12.844;2024-02-14T12:14:18;0.68;;;0.55;;
22186;SDS011;11259;52.146;12.844;2024-02-14T12:16:43;1.90;;;0.95;;
22186;SDS011;11259;52.146;12.844;2024-02-14T12:19:13;0.88;;;0.88;;
22186;SDS011;11259;52.146;12.844;2024-02-14T12:21:39;1.08;;;1.00;;
22186;SDS011;11259;52.146;12.844;2024-02-14T12:24:06;0.60;;;0.60;;
22186;SDS011;11259;52.146;12.844;2024-02-14T12:26:31;1.00;;;1.00;;
22186;SDS011;11259;52.146;12.844;2024-02-14T12:28:57;0.68;;;0.63;;
22186;SDS011;11259;52.146;12.844;2024-02-14T12:31:22;1.27;;;1.17;;
22186;SDS011;11259;52.146;12.844;2024-02-14T12:33:48;0.80;;;0.80;;
22186;SDS011;11259;52.146;12.844;2024-02-14T12:36:14;1.40;;;1.08;;
22186;SDS011;11259;52.146;12.844;2024-02-14T12:38:40;0.88;;;0.88;;
22186;SDS011;11259;52.146;12.844;2024-02-14T12:41:05;3.45;;;1.40;;
22186;SDS011;11259;52.146;12.844;2024-02-14T12:43:30;1.60;;;1.20;;
22186;SDS011;11259;52.146;12.844;2024-02-14T12:45:56;0.80;;;0.80;;
22186;SDS011;11259;52.146;12.844;2024-02-14T12:48:22;0.85;;;0.75;;
22186;SDS011;11259;52.146;12.844;2024-02-14T12:50:48;0.98;;;0.98;;
22186;SDS011;11259;52.146;12.844;2024-02-14T12:53:14;1.65;;;0.95;;
22186;SDS011;11259;52.146;12.844;2024-02-14T12:55:40;1.20;;;1.20;;
22186;SDS011;11259;52.146;12.844;2024-02-14T12:58:05;1.25;;;1.15;;
22186;SDS011;11259;52.146;12.844;2024-02-14T13:00:30;1.85;;;1.15;;
22186;SDS011;11259;52.146;12.844;2024-02-14T13:02:56;10.70;;;1.58;;
22186;SDS011;11259;52.146;12.844;2024-02-14T13:05:21;0.82;;;0.82;;
22186;SDS011;11259;52.146;12.844;2024-02-14T13:07:46;1.58;;;0.93;;
22186;SDS011;11259;52.146;12.844;2024-02-14T13:10:13;0.70;;;0.70;;
22186;SDS011;11259;52.146;12.844;2024-02-14T13:12:38;1.00;;;1.00;;
22186;SDS011;11259;52.146;12.844;2024-02-14T13:15:04;1.10;;;1.10;;
22186;SDS011;11259;52.146;12.844;2024-02-14T13:17:30;0.70;;;0.70;;
22186;SDS011;11259;52.146;12.844;2024-02-14T13:19:55;1.38;;;1.20;;
22186;SDS011;11259;52.146;12.844;2024-02-14T13:22:21;0.88;;;0.88;;
22186;SDS011;11259;52.146;12.844;2024-02-14T13:24:46;2.03;;;1.00;;
22186;SDS011;11259;52.146;12.844;2024-02-14T13:27:13;2.83;;;1.60;;
22186;SDS011;11259;52.146;12.844;2024-02-14T13:29:38;2.35;;;1.65;;
22186;SDS011;11259;52.146;12.844;2024-02-14T13:32:04;1.48;;;1.05;;
22186;SDS011;11259;52.146;12.844;2024-02-14T13:34:29;6.30;;;1.58;;
22186;SDS011;11259;52.146;12.844;2024-02-14T13:36:55;0.88;;;0.88;;
22186;SDS011;11259;52.146;12.844;2024-02-14T13:39:20;0.98;;;0.82;;
22186;SDS011;11259;52.146;12.844;2024-02-14T13:41:45;0.70;;;0.70;;
22186;SDS011;11259;52.146;12.844;2024-02-14T13:44:12;4.55;;;1.42;;
22186;SDS011;11259;52.146;12.844;2024-02-14T13:46:37;1.27;;;1.10;;
22186;SDS011;11259;52.146;12.844;2024-02-14T13:49:03;1.42;;;0.98;;
22186;SDS011;11259;52.146;12.844;2024-02-14T13:51:28;0.85;;;0.85;;
22186;SDS011;11259;52.146;12.844;2024-02-14T13:53:54;0.95;;;0.95;;
22186;SDS011;11259;52.146;12.844;2024-02-14T13:56:19;2.10;;;1.20;;
22186;SDS011;11259;52.146;12.844;2024-02-14T13:58:44;0.80;;;0.80;;
22186;SDS011;11259;52.146;12.844;2024-02-14T14:01:11;1.77;;;1.30;;
22186;SDS011;11259;52.146;12.844;2024-02-14T14:03:36;0.88;;;0.85;;
22186;SDS011;11259;52.146;12.844;2024-02-14T14:06:02;0.85;;;0.80;;
22186;SDS011;11259;52.146;12.844;2024-02-14T14:08:28;0.60;;;0.60;;
22186;SDS011;11259;52.146;12.844;2024-02-14T14:10:53;0.88;;;0.88;;
22186;SDS011;11259;52.146;12.844;2024-02-14T14:13:18;1.10;;;1.02;;
22186;SDS011;11259;52.146;12.844;2024-02-14T14:15:44;0.70;;;0.70;;
22186;SDS011;11259;52.146;12.844;2024-02-14T14:18:10;2.05;;;1.20;;
22186;SDS011;11259;52.146;12.844;2024-02-14T14:20:36;0.88;;;0.88;;
22186;SDS011;11259;52.146;12.844;2024-02-14T14:23:01;0.57;;;0.55;;